Green Bay, WI

7:16 AM CDT on August 27, 2016 (GMT -0500)
Lloyd Street | | Change Station

Elev 600 ft 44.59 °N, 87.89 °W | Updated 1 minute ago

Overcast
Overcast
61.5 °F
Feels Like 61.5 °F
N
0.0
Wind Variable Wind from WNW

Today
High -- | Low -- °F
--% Chance of Precip.
Yesterday
High -- | Low -- °F
Precip. -- in
Pressure 30.13 in
Visibility 10.0 miles
Clouds Few 7000 ft
Few 9500 ft
Overcast 12000 ft
Dew Point 55 °F
Humidity 79%
Rainfall 0.02 in
Snow Depth Not available.
6:08 AM 7:35 PM
Waning Crescent, 25% visible
METAR KGRB 271153Z 11005KT 10SM FEW070 FEW095 OVC120 17/17 A3013 RMK AO2 RAE52 SLP203 P0001 60003 70003 T01670167 10172 20161 51002
Pressure 30.13 in
Visibility 10.0 miles
Clouds Few 7000 ft
Few 9500 ft
Overcast 12000 ft
Dew Point 55 °F
Humidity 79%
Rainfall 0.02 in
Snow Depth Not available.
6:08 AM 7:35 PM
Waning Crescent, 25% visible
METAR KGRB 271153Z 11005KT 10SM FEW070 FEW095 OVC120 17/17 A3013 RMK AO2 RAE52 SLP203 P0001 60003 70003 T01670167 10172 20161 51002

10-Day Weather Forecast

Almanac

Astronomy

Aug. 27, 2016 Rise Set
Actual Time
Civil Twilight
Nautical Twilight
Astronomical Twilight
Moon
Length of Visible Light
Length of Day
Tomorrow will be .
, % of the Moon is Illuminated

Today's Extremes

State Highs State Lows

Community

WunderPhotos

Upload Photos

1,935,325 photos uploaded!

WunderBlog® & News

Nearby

Air Quality

  Air Quality AQ Index Pollutant
Not available.

Snow Depth

Station Depth Elevation

Earthquake Activity

City Distance Mag. Time & Date
Minimum magnitude displayed is 2.5.

Coastal Water Temperatures

Place Temperature

Stations

Nearby Weather Stations

Station Location Temp. Windchill Dew Point Humidity Wind Precip. Elev Updated Type
                   

Watches & Warnings

There are currently no watches in effect.